Time;durP1;ratioP1;P1;durP2;ratioP2;P2;SDS_P1;SDS_P2;PMS_P1;PMS_P2;Temp;Humidity;BMP_temperature;BMP_pressure;BME280_temperature;BME280_humidity;BME280_pressure;Samples;Min_cycle;Max_cycle;Signal;HPM_P1;HPM_P2
2022/05/15 00:02:39;;;;;;;13.95;8.43;;;13.60;63.80;;;;;;4988235;28;20041;-80
2022/05/15 00:05:05;;;;;;;11.57;9.40;;;13.40;65.70;;;;;;4972799;28;20034;-79
2022/05/15 00:07:31;;;;;;;11.77;9.20;;;13.30;66.80;;;;;;4964430;28;20025;-79
2022/05/15 00:09:56;;;;;;;16.77;9.13;;;13.30;68.70;;;;;;4968659;28;20040;-80
2022/05/15 00:12:22;;;;;;;19.13;9.48;;;14.60;73.00;;;;;;4985793;28;20042;-80
2022/05/15 00:14:48;;;;;;;16.67;9.88;;;13.70;68.40;;;;;;4998333;28;20137;-79
2022/05/15 00:17:14;;;;;;;14.30;8.65;;;13.30;74.00;;;;;;4979231;28;20038;-79
2022/05/15 00:19:42;;;;;;;14.32;9.77;;;12.90;72.90;;;;;;4997608;28;20038;-79
2022/05/15 00:22:08;;;;;;;15.43;9.52;;;12.90;73.80;;;;;;4982857;28;20591;-79
2022/05/15 00:24:34;;;;;;;17.60;9.38;;;12.50;71.10;;;;;;4984081;28;20053;-79
2022/05/15 00:27:00;;;;;;;13.38;9.65;;;12.50;75.40;;;;;;4979513;28;20403;-79
2022/05/15 00:29:25;;;;;;;18.90;10.50;;;12.30;75.30;;;;;;4985836;28;20080;-80
2022/05/15 00:31:51;;;;;;;14.45;8.98;;;11.90;69.80;;;;;;4968901;28;20113;-79
2022/05/15 00:34:17;;;;;;;14.65;10.10;;;12.00;71.80;;;;;;4969635;28;20031;-79
2022/05/15 00:36:42;;;;;;;15.70;9.52;;;12.40;73.40;;;;;;4981195;28;20402;-78
2022/05/15 00:39:08;;;;;;;21.90;10.43;;;12.40;75.80;;;;;;4980191;28;20549;-79
2022/05/15 00:41:34;;;;;;;19.05;9.48;;;12.40;70.40;;;;;;4981894;28;20041;-78
2022/05/15 00:44:00;;;;;;;14.73;9.65;;;12.40;69.70;;;;;;4980503;28;20026;-78
2022/05/15 00:46:32;;;;;;;18.17;10.60;;;12.00;70.90;;;;;;4985379;28;20081;-79
2022/05/15 00:48:59;;;;;;;14.13;9.88;;;12.20;72.30;;;;;;4962129;28;20413;-78
2022/05/15 00:51:44;;;;;;;14.50;8.98;;;12.20;74.80;;;;;;4971556;28;20550;-78
2022/05/15 00:54:21;;;;;;;15.88;9.80;;;12.20;76.70;;;;;;4981953;28;20383;-79
2022/05/15 00:57:00;;;;;;;18.08;10.00;;;12.40;76.70;;;;;;4981475;28;20030;-78
2022/05/15 00:59:27;;;;;;;12.18;9.60;;;12.20;78.60;;;;;;4978305;28;20485;-78
2022/05/15 01:01:53;;;;;;;10.30;6.43;;;12.40;76.10;;;;;;4971320;28;20036;-79
2022/05/15 01:04:18;;;;;;;15.43;9.73;;;12.40;75.70;;;;;;4996853;28;20034;-78
2022/05/15 01:06:44;;;;;;;15.70;9.57;;;12.30;76.90;;;;;;4965628;28;20049;-78
2022/05/15 01:09:10;;;;;;;17.13;10.07;;;12.30;76.40;;;;;;4980953;28;20105;-78
2022/05/15 01:11:35;;;;;;;23.23;10.10;;;12.10;74.40;;;;;;4979218;28;20085;-79
2022/05/15 01:14:05;;;;;;;13.05;10.30;;;12.10;75.40;;;;;;4984500;28;20042;-78
2022/05/15 01:16:30;;;;;;;18.73;10.52;;;11.80;76.10;;;;;;4983728;28;20175;-78
2022/05/15 01:18:57;;;;;;;13.15;9.60;;;11.90;81.90;;;;;;4979390;28;20034;-78
2022/05/15 01:21:28;;;;;;;17.05;10.55;;;12.10;75.40;;;;;;4984503;28;20053;-78
2022/05/15 01:23:53;;;;;;;15.05;9.52;;;12.00;75.60;;;;;;4992747;28;20040;-78
2022/05/15 01:26:19;;;;;;;18.42;11.07;;;11.90;75.60;;;;;;4984770;28;20034;-78
2022/05/15 01:28:45;;;;;;;16.17;11.05;;;;;;;;;;4985144;28;20109;-78
2022/05/15 01:31:11;;;;;;;20.70;10.70;;;11.50;75.80;;;;;;4995254;28;20468;-78
2022/05/15 01:33:36;;;;;;;12.30;9.70;;;11.50;79.90;;;;;;4983359;28;20040;-78
2022/05/15 01:36:02;;;;;;;13.25;10.73;;;11.60;78.40;;;;;;4969659;28;20057;-78
2022/05/15 01:38:27;;;;;;;16.35;11.38;;;11.50;78.10;;;;;;4998125;28;20118;-78
2022/05/15 01:40:53;;;;;;;19.52;11.10;;;11.30;79.70;;;;;;4974275;28;20064;-78
2022/05/15 01:43:18;;;;;;;17.85;10.85;;;11.60;82.80;;;;;;4985258;28;20033;-78
2022/05/15 01:45:44;;;;;;;17.75;11.80;;;11.40;83.50;;;;;;4985641;28;20141;-78
2022/05/15 01:48:10;;;;;;;16.17;10.35;;;11.40;84.30;;;;;;4985002;28;20084;-78
2022/05/15 01:50:35;;;;;;;19.40;10.50;;;11.40;84.00;;;;;;4987643;28;20422;-78
2022/05/15 01:53:01;;;;;;;17.30;10.48;;;11.40;82.30;;;;;;4971640;28;20486;-77
2022/05/15 01:55:26;;;;;;;15.65;11.23;;;11.20;84.60;;;;;;4985481;28;20123;-78
2022/05/15 01:57:52;;;;;;;15.75;10.95;;;10.70;89.30;;;;;;4984314;28;20173;-78
2022/05/15 02:00:20;;;;;;;18.88;11.52;;;11.00;91.90;;;;;;4971271;28;20085;-78
2022/05/15 02:02:46;;;;;;;18.23;11.10;;;11.60;96.30;;;;;;4987656;28;20064;-78
2022/05/15 02:05:12;;;;;;;20.50;11.10;;;11.00;95.30;;;;;;5000646;28;20124;-78
2022/05/15 02:07:38;;;;;;;15.65;11.32;;;11.00;91.80;;;;;;4987862;28;20066;-79
2022/05/15 02:10:04;;;;;;;18.10;12.48;;;10.90;92.50;;;;;;4983739;28;20027;-78
2022/05/15 02:12:31;;;;;;;14.07;10.80;;;10.70;93.70;;;;;;4982635;28;20141;-77
2022/05/15 02:14:57;;;;;;;16.25;10.52;;;10.80;96.20;;;;;;4988593;28;20534;-78
2022/05/15 02:17:23;;;;;;;19.88;10.55;;;10.90;93.20;;;;;;4980011;28;20030;-78
2022/05/15 02:19:48;;;;;;;22.42;11.32;;;10.80;93.50;;;;;;4989268;28;20040;-78
2022/05/15 02:22:14;;;;;;;20.48;11.60;;;10.70;94.70;;;;;;4994464;28;20053;-78
2022/05/15 02:24:39;;;;;;;14.30;11.60;;;10.60;95.20;;;;;;4985842;28;20113;-78
2022/05/15 02:27:05;;;;;;;17.33;11.75;;;10.60;96.30;;;;;;4988100;28;20037;-78
2022/05/15 02:29:31;;;;;;;19.77;12.00;;;10.80;96.40;;;;;;4970356;28;20030;-78
2022/05/15 02:31:56;;;;;;;16.52;11.55;;;10.90;96.90;;;;;;4985056;28;20037;-78
2022/05/15 02:34:22;;;;;;;17.55;12.23;;;10.80;97.00;;;;;;5000722;28;20038;-78
2022/05/15 02:36:47;;;;;;;18.73;12.20;;;10.80;99.50;;;;;;4986215;28;20092;-78
2022/05/15 02:39:13;;;;;;;15.95;12.48;;;10.80;98.80;;;;;;4997847;28;20071;-78
2022/05/15 02:41:38;;;;;;;15.38;11.60;;;10.80;99.20;;;;;;4988558;28;20038;-78
2022/05/15 02:44:04;;;;;;;18.98;11.60;;;10.30;98.70;;;;;;4974050;28;20036;-77
2022/05/15 02:46:29;;;;;;;17.13;11.43;;;10.50;97.90;;;;;;4986464;28;20029;-78
2022/05/15 02:51:39;;;;;;;17.13;11.27;;;10.20;99.90;;;;;;4999261;28;20428;-80
2022/05/15 02:54:05;;;;;;;23.40;12.85;;;10.00;99.90;;;;;;4983804;28;20046;-81
2022/05/15 02:56:31;;;;;;;15.48;11.55;;;10.30;99.90;;;;;;4980962;28;20042;-80
2022/05/15 02:58:57;;;;;;;23.52;12.57;;;10.50;99.90;;;;;;4988072;28;20056;-81
2022/05/15 03:01:22;;;;;;;20.60;13.82;;;10.50;99.90;;;;;;4984845;28;20415;-80
2022/05/15 03:03:48;;;;;;;20.38;12.10;;;10.40;99.90;;;;;;4998276;28;20049;-80
2022/05/15 03:06:13;;;;;;;15.32;11.52;;;10.60;99.90;;;;;;4989096;28;20030;-80
2022/05/15 03:08:41;;;;;;;17.60;11.93;;;10.20;99.90;;;;;;4988281;28;20073;-80
2022/05/15 03:11:07;;;;;;;19.70;12.52;;;10.10;99.90;;;;;;4971697;28;20033;-80
2022/05/15 03:13:32;;;;;;;15.73;12.00;;;10.30;99.90;;;;;;4998838;28;20041;-80
2022/05/15 03:15:58;;;;;;;11.90;8.48;;;10.50;99.90;;;;;;4985257;28;20033;-80
2022/05/15 03:18:23;;;;;;;10.90;7.63;;;10.70;97.70;;;;;;4997738;28;20034;-80
2022/05/15 03:20:49;;;;;;;10.82;8.15;;;10.70;97.10;;;;;;4983369;28;20056;-80
2022/05/15 03:23:15;;;;;;;12.02;9.18;;;10.70;96.50;;;;;;4997369;28;20041;-80
2022/05/15 03:25:41;;;;;;;17.88;11.32;;;10.70;96.10;;;;;;4981527;28;20037;-80
2022/05/15 03:28:09;;;;;;;14.98;10.35;;;10.50;97.20;;;;;;4997636;28;20061;-80
2022/05/15 03:30:39;;;;;;;19.50;10.95;;;10.20;97.30;;;;;;4984843;28;20038;-81
2022/05/15 03:33:04;;;;;;;17.27;11.82;;;9.90;99.60;;;;;;4986642;28;20038;-80
2022/05/15 03:35:30;;;;;;;16.98;11.77;;;9.80;99.90;;;;;;4986017;28;20037;-80
2022/05/15 03:37:56;;;;;;;18.25;11.48;;;9.90;99.90;;;;;;4988316;28;20092;-80
2022/05/15 03:40:21;;;;;;;18.33;11.95;;;9.80;99.90;;;;;;4983915;28;20045;-80
2022/05/15 03:42:47;;;;;;;17.30;11.88;;;9.80;99.90;;;;;;4986803;28;20044;-80
2022/05/15 03:45:12;;;;;;;18.13;12.30;;;9.80;99.90;;;;;;5000094;28;20058;-80
2022/05/15 03:47:48;;;;;;;15.68;12.27;;;9.80;99.90;;;;;;4994822;28;20379;-80
2022/05/15 03:50:14;;;;;;;;;;;9.90;99.90;;;;;;4987476;28;20046;-80
2022/05/15 03:52:39;;;;;;;24.57;12.73;;;10.00;99.90;;;;;;4997598;28;19913;-80
2022/05/15 03:55:05;;;;;;;20.98;12.88;;;10.30;99.90;;;;;;4984454;28;20072;-80
2022/05/15 03:57:31;;;;;;;15.32;11.80;;;10.10;99.90;;;;;;4986520;28;20045;-80
2022/05/15 03:59:56;;;;;;;16.70;11.88;;;10.10;99.90;;;;;;4973373;28;20056;-80
2022/05/15 04:02:22;;;;;;;15.48;12.18;;;10.10;99.90;;;;;;4984205;28;20038;-80
2022/05/15 04:04:47;;;;;;;22.45;12.50;;;10.10;99.90;;;;;;4986094;28;20125;-80
2022/05/15 04:07:13;;;;;;;22.42;12.27;;;9.90;99.90;;;;;;4984332;28;20113;-80
2022/05/15 04:09:40;;;;;;;24.40;12.60;;;9.80;99.90;;;;;;4969171;28;20361;-81
2022/05/15 04:12:08;;;;;;;15.38;11.63;;;9.80;99.90;;;;;;4987292;28;20093;-80
2022/05/15 04:14:33;;;;;;;18.20;12.07;;;9.80;99.90;;;;;;4984169;28;20549;-80
2022/05/15 04:16:59;;;;;;;18.52;12.80;;;9.80;99.90;;;;;;4981506;28;20033;-80
2022/05/15 04:19:24;;;;;;;16.27;12.18;;;9.90;99.90;;;;;;4985217;28;20050;-80
2022/05/15 04:21:50;;;;;;;15.48;11.95;;;9.90;99.90;;;;;;4986076;28;20023;-80
2022/05/15 04:24:16;;;;;;;17.92;13.35;;;10.00;99.90;;;;;;4985158;28;20026;-81
2022/05/15 04:26:42;;;;;;;20.88;12.02;;;10.10;99.90;;;;;;4970628;28;20482;-80
2022/05/15 04:29:08;;;;;;;18.02;12.40;;;10.20;99.90;;;;;;4996034;28;20472;-80
2022/05/15 04:31:34;;;;;;;25.40;14.38;;;10.20;99.90;;;;;;4981575;28;20050;-80
2022/05/15 04:34:00;;;;;;;17.63;13.30;;;10.30;99.90;;;;;;4984778;28;20435;-80
2022/05/15 04:36:26;;;;;;;20.67;13.50;;;10.40;99.90;;;;;;4984824;28;20042;-80
2022/05/15 04:38:51;;;;;;;18.98;14.60;;;10.50;99.90;;;;;;4985873;28;20110;-81
2022/05/15 04:41:17;;;;;;;17.33;12.32;;;10.60;99.90;;;;;;4995417;28;20177;-80
2022/05/15 04:43:42;;;;;;;19.02;12.98;;;10.70;99.90;;;;;;4984625;28;20030;-80
2022/05/15 04:46:08;;;;;;;20.50;13.13;;;10.80;99.90;;;;;;4995631;28;20034;-80
2022/05/15 04:48:34;;;;;;;15.77;12.30;;;10.90;99.90;;;;;;5000030;28;20040;-80
2022/05/15 04:51:00;;;;;;;15.18;12.40;;;11.00;99.90;;;;;;4997217;28;20177;-80
2022/05/15 04:53:27;;;;;;;17.15;12.00;;;11.10;99.90;;;;;;5002410;28;20029;-81
2022/05/15 04:55:53;;;;;;;15.07;12.00;;;11.30;99.90;;;;;;4981998;28;20065;-80
2022/05/15 04:58:19;;;;;;;20.05;11.98;;;11.40;99.90;;;;;;4986720;28;20034;-81
2022/05/15 05:00:45;;;;;;;15.55;12.05;;;11.50;99.90;;;;;;4963228;28;20096;-81
2022/05/15 05:03:10;;;;;;;20.65;11.02;;;11.60;99.90;;;;;;4982635;28;20038;-81
2022/05/15 05:05:36;;;;;;;17.75;11.60;;;11.80;99.90;;;;;;4982555;28;20452;-81
2022/05/15 05:08:01;;;;;;;17.02;11.00;;;11.90;99.90;;;;;;4984109;28;20030;-80
2022/05/15 05:10:27;;;;;;;17.92;11.70;;;12.10;99.90;;;;;;4996129;28;20172;-80
2022/05/15 05:12:52;;;;;;;17.00;11.20;;;12.30;99.90;;;;;;4966908;28;20151;-80
2022/05/15 05:15:18;;;;;;;20.20;11.30;;;12.40;99.90;;;;;;4984093;28;20053;-81
2022/05/15 05:17:43;;;;;;;13.45;9.95;;;12.60;99.90;;;;;;4984704;28;20038;-81
2022/05/15 05:20:10;;;;;;;19.50;10.45;;;12.90;99.90;;;;;;4982392;28;20405;-81
2022/05/15 05:22:36;;;;;;;14.95;10.23;;;12.90;99.90;;;;;;4980970;28;20084;-81
2022/05/15 05:25:01;;;;;;;15.00;10.10;;;13.00;99.90;;;;;;4982022;28;20113;-81
2022/05/15 05:27:27;;;;;;;12.98;10.32;;;13.20;99.90;;;;;;4981376;28;20461;-81
2022/05/15 05:29:53;;;;;;;16.83;10.68;;;13.40;99.90;;;;;;4970704;28;20124;-82
2022/05/15 05:32:18;;;;;;;11.23;9.32;;;13.20;99.90;;;;;;4985762;28;20531;-81
2022/05/15 05:34:44;;;;;;;21.50;9.57;;;13.80;99.90;;;;;;4984902;28;20030;-82
2022/05/15 05:37:09;;;;;;;14.25;9.45;;;14.00;99.90;;;;;;4998165;28;20056;-82
2022/05/15 05:39:35;;;;;;;19.40;9.32;;;14.20;99.90;;;;;;4974795;28;20057;-82
2022/05/15 05:42:00;;;;;;;12.65;8.75;;;14.40;99.90;;;;;;4998037;28;20367;-82
2022/05/15 05:44:26;;;;;;;17.40;9.82;;;14.60;99.90;;;;;;4985104;28;20457;-82
2022/05/15 05:46:52;;;;;;;18.20;9.27;;;14.80;99.90;;;;;;4973727;28;20188;-82
2022/05/15 05:49:17;;;;;;;11.43;7.95;;;15.00;99.90;;;;;;4997148;28;20084;-81
2022/05/15 05:51:44;;;;;;;18.33;9.15;;;15.20;99.90;;;;;;4982370;28;20161;-82
2022/05/15 05:54:11;;;;;;;13.55;8.48;;;15.40;99.90;;;;;;4970137;28;20022;-82
2022/05/15 05:56:37;;;;;;;17.98;8.40;;;16.00;99.90;;;;;;4967545;28;20038;-82
2022/05/15 05:59:03;;;;;;;11.70;6.28;;;15.90;99.90;;;;;;4983406;28;20486;-82
2022/05/15 06:01:29;;;;;;;14.77;8.18;;;16.10;99.90;;;;;;4976902;28;20034;-83
2022/05/15 06:06:39;;;;;;;10.27;6.68;;;16.50;99.90;;;;;;4983536;28;20113;-82
2022/05/15 06:09:04;;;;;;;18.92;8.10;;;16.70;99.90;;;;;;4981889;28;20133;-82
2022/05/15 06:11:30;;;;;;;11.40;7.30;;;16.90;99.90;;;;;;4982260;28;20379;-81
2022/05/15 06:13:55;;;;;;;15.35;7.40;;;17.10;99.90;;;;;;4998479;28;20497;-82
2022/05/15 06:16:21;;;;;;;14.23;7.07;;;17.30;99.90;;;;;;4984722;28;20030;-82
2022/05/15 06:18:46;;;;;;;17.88;7.85;;;17.50;99.90;;;;;;4963347;28;20027;-82
2022/05/15 06:21:13;;;;;;;12.48;7.25;;;17.60;99.90;;;;;;4969827;28;20073;-82
2022/05/15 06:23:38;;;;;;;13.27;6.90;;;17.40;99.90;;;;;;4984176;28;20060;-82
2022/05/15 06:26:04;;;;;;;11.23;7.45;;;17.90;99.90;;;;;;4972724;28;20509;-82
2022/05/15 06:28:29;;;;;;;16.15;6.22;;;18.10;99.90;;;;;;4969543;28;20379;-82
2022/05/15 06:30:55;;;;;;;9.43;6.88;;;18.30;99.90;;;;;;4983947;28;20030;-82
2022/05/15 06:33:21;;;;;;;11.32;6.43;;;18.50;99.90;;;;;;4999469;28;20527;-82
2022/05/15 06:35:46;;;;;;;13.77;6.57;;;18.70;99.90;;;;;;4988076;28;20039;-82
2022/05/15 06:38:12;;;;;;;10.27;6.18;;;19.70;99.90;;;;;;4969029;28;20034;-82
2022/05/15 06:40:37;;;;;;;12.05;6.90;;;19.00;99.90;;;;;;4984496;28;20048;-82
2022/05/15 06:43:03;;;;;;;12.73;6.47;;;19.30;99.90;;;;;;4972127;28;20420;-82
2022/05/15 06:45:28;;;;;;;15.07;6.40;;;19.50;99.90;;;;;;4986455;28;20478;-82
2022/05/15 06:47:54;;;;;;;9.88;5.15;;;19.70;99.60;;;;;;4983572;28;20054;-82
2022/05/15 06:50:20;;;;;;;7.57;5.72;;;19.80;98.60;;;;;;4970693;28;20034;-82
2022/05/15 06:52:45;;;;;;;8.63;6.07;;;19.90;98.30;;;;;;4985571;28;20082;-82
2022/05/15 06:55:14;;;;;;;10.43;5.15;;;20.20;98.00;;;;;;4981953;28;20041;-83
2022/05/15 06:57:40;;;;;;;12.20;5.72;;;20.30;97.80;;;;;;4980242;28;20046;-83
2022/05/15 07:00:09;;;;;;;9.35;6.13;;;20.40;96.90;;;;;;5000425;28;20033;-83
2022/05/15 07:02:35;;;;;;;12.52;7.07;;;20.70;96.90;;;;;;4981815;28;20034;-84
2022/05/15 07:05:01;;;;;;;13.57;6.45;;;20.80;98.00;;;;;;4973758;28;20044;-82
2022/05/15 07:07:26;;;;;;;9.70;6.05;;;21.10;99.60;;;;;;4982771;28;20050;-83
2022/05/15 07:09:52;;;;;;;14.82;7.32;;;21.40;98.20;;;;;;4986280;28;20049;-83
2022/05/15 07:12:17;;;;;;;10.32;5.72;;;21.40;97.40;;;;;;4986457;28;20041;-83
2022/05/15 07:14:43;;;;;;;10.32;6.32;;;21.50;97.90;;;;;;4984053;28;20034;-82
2022/05/15 07:17:09;;;;;;;10.73;5.80;;;21.80;96.80;;;;;;4986755;28;20516;-82
2022/05/15 07:19:34;;;;;;;9.10;5.82;;;22.70;95.10;;;;;;4969106;28;20064;-83
2022/05/15 07:22:00;;;;;;;11.52;6.75;;;22.30;94.70;;;;;;4984547;28;20080;-83
2022/05/15 07:24:25;;;;;;;9.85;6.03;;;22.40;93.70;;;;;;4996273;28;20398;-83
2022/05/15 07:26:51;;;;;;;13.35;6.13;;;22.60;93.20;;;;;;4983950;28;20026;-83
2022/05/15 07:29:17;;;;;;;14.40;6.40;;;23.00;92.80;;;;;;4997129;28;20037;-83
2022/05/15 07:31:42;;;;;;;12.02;6.32;;;23.00;92.20;;;;;;4966568;28;20126;-82
2022/05/15 07:34:09;;;;;;;5.32;4.07;;;23.10;91.80;;;;;;4983721;28;20576;-82
2022/05/15 07:36:35;;;;;;;10.38;4.90;;;23.30;91.60;;;;;;4978615;28;20033;-81
2022/05/15 07:39:00;;;;;;;15.15;5.13;;;23.50;92.00;;;;;;4999771;28;20023;-82
2022/05/15 07:41:26;;;;;;;9.95;4.15;;;23.70;91.00;;;;;;4994817;28;20508;-82
2022/05/15 07:43:51;;;;;;;9.30;5.32;;;23.90;90.40;;;;;;4997425;28;20447;-82
2022/05/15 07:46:17;;;;;;;8.60;4.70;;;24.00;90.10;;;;;;4987383;28;20065;-82
2022/05/15 07:48:43;;;;;;;13.45;5.28;;;24.00;89.10;;;;;;4988239;28;20060;-82
2022/05/15 07:51:08;;;;;;;9.35;4.65;;;24.30;88.10;;;;;;4988559;28;20064;-83
2022/05/15 07:53:34;;;;;;;6.65;3.42;;;24.00;80.40;;;;;;4988453;28;20113;-82
2022/05/15 07:56:03;;;;;;;10.25;3.83;;;23.60;81.20;;;;;;4985019;28;20117;-83
2022/05/15 07:58:29;;;;;;;7.57;5.05;;;23.80;82.90;;;;;;4988035;28;20040;-83
2022/05/15 08:00:55;;;;;;;10.27;4.85;;;24.10;89.00;;;;;;4980792;28;20030;-83
2022/05/15 08:03:20;;;;;;;10.10;4.50;;;24.70;87.40;;;;;;5000740;28;20142;-83
2022/05/15 08:08:30;;;;;;;11.75;4.10;;;25.20;86.20;;;;;;4994843;28;20565;-83
2022/05/15 08:10:56;;;;;;;10.45;4.05;;;25.60;84.80;;;;;;4971501;28;20034;-84
2022/05/15 08:13:25;;;;;;;7.45;3.10;;;25.80;82.40;;;;;;4965034;28;20141;-84
2022/05/15 08:15:50;;;;;;;9.88;3.20;;;25.60;71.80;;;;;;4986067;28;20041;-84
2022/05/15 08:23:53;;;;;;;12.15;2.97;;;26.20;70.60;;;;;;4997079;28;20045;-84
2022/05/15 08:26:19;;;;;;;10.70;3.13;;;26.00;64.30;;;;;;4988498;28;20037;-84
2022/05/15 08:28:46;;;;;;;16.27;3.17;;;26.40;71.80;;;;;;4985082;28;20436;-84
2022/05/15 08:31:11;;;;;;;12.77;3.97;;;26.80;68.10;;;;;;4980830;28;20022;-85
2022/05/15 08:33:37;;;;;;;10.43;2.65;;;27.30;64.80;;;;;;4970882;28;20494;-86
2022/05/15 08:36:04;;;;;;;7.28;3.25;;;27.10;62.70;;;;;;4982338;28;20397;-85
2022/05/15 08:38:29;;;;;;;12.88;3.65;;;27.00;63.40;;;;;;4984554;28;20096;-85
2022/05/15 08:41:11;;;;;;;13.18;2.78;;;27.10;61.70;;;;;;4983292;28;20050;-85
2022/05/15 08:43:53;;;;;;;11.40;3.63;;;27.10;63.10;;;;;;4996335;28;20034;-85
2022/05/15 08:46:32;;;;;;;13.82;3.25;;;27.30;58.30;;;;;;4967161;28;20172;-84
2022/05/15 08:49:12;;;;;;;10.43;2.90;;;27.40;59.30;;;;;;5000812;28;20026;-85
2022/05/15 08:51:41;;;;;;;10.02;3.15;;;27.40;59.40;;;;;;4980949;28;20117;-85
2022/05/15 08:54:07;;;;;;;12.60;3.78;;;27.40;57.90;;;;;;4983175;28;20052;-84
2022/05/15 08:56:35;;;;;;;10.70;3.75;;;27.50;58.50;;;;;;4986499;28;20026;-85
2022/05/15 08:59:01;;;;;;;10.25;3.17;;;27.60;57.40;;;;;;4967320;28;20105;-84
2022/05/15 09:01:27;;;;;;;12.38;3.05;;;27.80;56.10;;;;;;4985522;28;20422;-86
2022/05/15 09:03:55;;;;;;;10.70;3.70;;;27.90;55.00;;;;;;4979562;28;20076;-85
2022/05/15 09:06:48;;;;;;;9.10;3.20;;;27.80;55.60;;;;;;4998790;28;20052;-84
2022/05/15 09:09:24;;;;;;;7.05;2.90;;;27.90;57.50;;;;;;4981298;28;20074;-84
2022/05/15 09:12:06;;;;;;;7.20;2.78;;;27.80;57.50;;;;;;4998279;28;20031;-83
2022/05/15 09:14:57;;;;;;;6.88;2.38;;;27.90;57.00;;;;;;4986830;28;20053;-83
2022/05/15 09:17:41;;;;;;;5.88;2.60;;;28.00;57.30;;;;;;4969326;28;20445;-83
2022/05/15 09:20:10;;;;;;;11.13;3.13;;;28.30;56.60;;;;;;4996530;28;20033;-83
2022/05/15 09:22:38;;;;;;;9.32;3.15;;;28.30;56.20;;;;;;4985622;28;20041;-82
2022/05/15 09:25:13;;;;;;;5.70;2.58;;;28.40;56.40;;;;;;4995226;28;20104;-83
2022/05/15 09:27:38;;;;;;;13.65;4.15;;;28.80;57.30;;;;;;4981100;28;20035;-82
2022/05/15 09:30:09;;;;;;;10.98;3.72;;;28.80;54.80;;;;;;4979306;28;20088;-81
2022/05/15 09:32:40;;;;;;;7.15;3.00;;;29.20;53.80;;;;;;4962789;28;20026;-82
2022/05/15 09:35:19;;;;;;;8.98;3.75;;;29.20;53.00;;;;;;4991722;28;21046;-81
2022/05/15 09:43:31;;;;;;;6.55;2.50;;;29.50;52.00;;;;;;4981589;28;20045;-80
2022/05/15 09:45:56;;;;;;;6.10;2.50;;;29.40;52.50;;;;;;4993540;28;20402;-80
2022/05/15 09:48:24;;;;;;;8.20;2.97;;;29.50;52.20;;;;;;4984535;28;20786;-80
2022/05/15 09:50:52;;;;;;;7.82;2.70;;;29.60;53.60;;;;;;4981407;28;20044;-80
2022/05/15 09:53:37;;;;;;;6.97;2.30;;;29.90;52.40;;;;;;4997486;28;20120;-81
2022/05/15 09:56:05;;;;;;;7.47;2.90;;;29.90;50.00;;;;;;4978518;28;20745;-81
2022/05/15 09:58:46;;;;;;;8.02;2.63;;;30.00;50.40;;;;;;4982045;28;20048;-80
2022/05/15 10:01:16;;;;;;;7.50;2.83;;;30.00;50.50;;;;;;4999791;28;20029;-81
2022/05/15 10:03:41;;;;;;;5.20;2.40;;;30.10;49.50;;;;;;4995838;28;20136;-81
2022/05/15 10:06:08;;;;;;;6.80;2.63;;;30.00;48.90;;;;;;4987294;28;20113;-80
2022/05/15 10:08:34;;;;;;;10.18;2.60;;;30.20;47.90;;;;;;5003379;28;20038;-81
2022/05/15 10:11:08;;;;;;;8.00;2.78;;;30.30;48.10;;;;;;5005964;28;20026;-80
2022/05/15 10:13:44;;;;;;;7.47;3.25;;;30.30;46.30;;;;;;5002103;28;20053;-80
2022/05/15 10:16:18;;;;;;;7.68;2.10;;;30.40;47.60;;;;;;4989534;28;20030;-80
2022/05/15 10:19:08;;;;;;;10.18;3.15;;;30.30;49.00;;;;;;5000414;28;20034;-80
2022/05/15 10:21:44;;;;;;;7.28;2.40;;;30.60;49.10;;;;;;4981363;28;20039;-80
2022/05/15 10:24:13;;;;;;;7.07;2.55;;;30.50;48.60;;;;;;4985623;28;20382;-80
2022/05/15 10:27:04;;;;;;;4.90;2.22;;;30.60;48.20;;;;;;4998239;28;20092;-78
2022/05/15 10:29:44;;;;;;;6.30;2.17;;;30.70;47.70;;;;;;4994255;28;20030;-78
2022/05/15 10:32:26;;;;;;;8.27;2.50;;;31.20;45.30;;;;;;4997886;28;20026;-79
2022/05/15 10:34:52;;;;;;;4.65;1.90;;;31.40;45.50;;;;;;4985425;28;20034;-79
2022/05/15 10:37:28;;;;;;;4.70;1.90;;;31.20;45.40;;;;;;4987153;28;20130;-79
2022/05/15 10:40:12;;;;;;;;;;;31.10;46.30;;;;;;4977757;28;20048;-79
2022/05/15 10:42:57;;;;;;;7.30;3.03;;;31.20;46.20;;;;;;4996611;28;20009;-80
2022/05/15 10:45:31;;;;;;;7.53;2.60;;;31.30;45.90;;;;;;4993511;28;20109;-79
2022/05/15 10:48:07;;;;;;;7.50;3.17;;;31.40;45.80;;;;;;4996658;28;20034;-79
2022/05/15 10:50:57;;;;;;;7.78;2.72;;;31.70;46.10;;;;;;4994096;28;20091;-79
2022/05/15 10:59:36;;;;;;;9.13;2.78;;;32.00;43.80;;;;;;4994706;28;20030;-79
2022/05/15 11:02:20;;;;;;;7.57;2.78;;;32.10;43.00;;;;;;5001337;28;20911;-79
2022/05/15 11:05:06;;;;;;;4.93;2.20;;;32.00;43.00;;;;;;4997507;28;20026;-79
2022/05/15 11:07:48;;;;;;;9.20;2.20;;;32.20;45.10;;;;;;4997676;28;20504;-78
2022/05/15 11:10:27;;;;;;;7.40;2.50;;;32.40;44.30;;;;;;4982850;28;20026;-78
2022/05/15 11:13:01;;;;;;;4.85;2.15;;;32.40;44.30;;;;;;4999508;28;20038;-78
2022/05/15 11:15:39;;;;;;;5.60;2.40;;;32.50;43.50;;;;;;5002066;28;20054;-79
2022/05/15 11:18:16;;;;;;;8.70;2.95;;;32.50;42.60;;;;;;4996786;28;20038;-79
2022/05/15 11:20:50;;;;;;;8.67;2.87;;;32.50;42.30;;;;;;4304379;28;10000086;-79
2022/05/15 11:23:20;;;;;;;6.18;2.53;;;32.60;42.40;;;;;;4963172;28;20095;-79
2022/05/15 11:25:55;;;;;;;4.25;2.42;;;32.60;42.00;;;;;;4972919;28;20044;-79
2022/05/15 11:28:35;;;;;;;4.20;2.10;;;32.70;42.60;;;;;;4973236;28;20033;-79
2022/05/15 11:31:09;;;;;;;6.07;2.38;;;32.70;43.40;;;;;;4991374;28;20096;-79
2022/05/15 11:33:43;;;;;;;5.53;2.33;;;32.80;40.50;;;;;;4991167;28;20065;-79
2022/05/15 11:36:14;;;;;;;4.68;2.65;;;32.90;39.60;;;;;;4993623;28;20033;-79
2022/05/15 11:38:45;;;;;;;6.72;2.60;;;32.80;39.80;;;;;;4965940;28;20167;-79
2022/05/15 11:41:43;;;;;;;7.05;2.30;;;32.80;40.80;;;;;;4989675;28;20037;-79
2022/05/15 11:44:14;;;;;;;4.63;2.10;;;32.90;39.50;;;;;;4960008;28;20502;-79
2022/05/15 11:46:45;;;;;;;5.43;2.60;;;33.00;40.60;;;;;;5007320;28;20045;-79
2022/05/15 11:49:32;;;;;;;4.75;2.33;;;33.10;41.10;;;;;;4997202;28;20026;-79
2022/05/15 11:52:05;;;;;;;7.22;2.70;;;33.10;38.80;;;;;;4993978;28;20088;-79
2022/05/15 11:54:35;;;;;;;4.53;1.95;;;33.20;38.50;;;;;;4993618;28;20061;-79
2022/05/15 11:57:01;;;;;;;5.07;2.22;;;;;;;;;;4983777;28;20124;-79
2022/05/15 11:59:28;;;;;;;4.35;2.72;;;34.50;38.50;;;;;;4984145;28;20121;-79
2022/05/15 12:01:55;;;;;;;4.95;2.20;;;34.00;38.80;;;;;;4979487;28;20035;-79
2022/05/15 12:04:51;;;;;;;6.85;2.28;;;33.60;39.30;;;;;;4993217;28;20387;-79
2022/05/15 12:07:28;;;;;;;5.30;2.30;;;33.90;41.00;;;;;;4643278;28;10000194;-80
2022/05/15 12:09:54;;;;;;;6.53;2.42;;;33.70;40.20;;;;;;4977235;28;20038;-79
2022/05/15 12:12:31;;;;;;;6.30;2.30;;;33.70;40.50;;;;;;4981502;28;20038;-79
2022/05/15 12:15:13;;;;;;;4.80;2.40;;;33.70;38.90;;;;;;4993081;28;20041;-79
2022/05/15 12:17:51;;;;;;;5.82;2.10;;;33.90;38.90;;;;;;4997513;28;20485;-79
2022/05/15 12:20:27;;;;;;;7.60;2.35;;;33.80;39.00;;;;;;4644658;28;10000045;-79
2022/05/15 12:22:55;;;;;;;4.97;2.00;;;33.90;39.00;;;;;;4989468;28;20030;-79
2022/05/15 12:25:43;;;;;;;7.15;2.42;;;34.20;40.60;;;;;;4976940;28;20043;-80
2022/05/15 12:30:53;;;;;;;7.85;2.35;;;34.50;40.20;;;;;;4992516;28;20033;-79
2022/05/15 12:33:23;;;;;;;5.05;2.35;;;34.50;39.10;;;;;;4977284;28;20400;-79
2022/05/15 12:35:49;;;;;;;8.38;3.25;;;34.90;38.40;;;;;;4983751;28;20103;-80
2022/05/15 12:38:22;;;;;;;6.75;2.22;;;34.70;38.10;;;;;;4991089;28;20056;-79
2022/05/15 12:41:17;;;;;;;5.88;2.30;;;34.70;37.10;;;;;;4978371;28;20038;-79
2022/05/15 12:43:44;;;;;;;4.85;2.03;;;34.70;39.00;;;;;;4993681;28;20034;-79
2022/05/15 12:46:32;;;;;;;5.53;2.28;;;34.80;38.70;;;;;;4984104;28;20453;-79
2022/05/15 12:48:58;;;;;;;6.90;2.53;;;35.10;38.80;;;;;;4980728;28;20069;-79
2022/05/15 12:51:28;;;;;;;6.60;2.28;;;35.10;38.60;;;;;;4978714;28;20358;-80
2022/05/15 12:53:54;;;;;;;5.93;1.90;;;35.00;37.60;;;;;;4978277;28;20512;-79
2022/05/15 12:56:25;;;;;;;6.22;2.92;;;35.40;38.40;;;;;;4984304;28;20029;-79
2022/05/15 12:58:55;;;;;;;4.90;2.08;;;35.10;36.00;;;;;;4978613;28;20030;-79
2022/05/15 13:01:23;;;;;;;4.60;1.85;;;35.00;37.40;;;;;;4983336;28;20022;-79
2022/05/15 13:03:50;;;;;;;5.18;2.22;;;35.20;38.40;;;;;;4991218;28;20058;-79
2022/05/15 13:06:20;;;;;;;4.97;2.05;;;36.70;36.50;;;;;;4982281;28;20039;-79
2022/05/15 13:08:46;;;;;;;5.43;2.40;;;35.80;37.70;;;;;;4991952;28;20037;-80
2022/05/15 13:11:37;;;;;;;8.13;2.47;;;35.70;36.90;;;;;;4981820;28;20026;-80
2022/05/15 13:14:02;;;;;;;7.18;2.70;;;35.50;36.70;;;;;;4983763;28;20038;-79
2022/05/15 13:16:28;;;;;;;8.05;2.42;;;35.40;36.60;;;;;;4983708;28;20022;-79